Time;durP1;ratioP1;P1;durP2;ratioP2;P2;SDS_P1;SDS_P2;PMS_P1;PMS_P2;Temp;Humidity;BMP_temperature;BMP_pressure;BME280_temperature;BME280_humidity;BME280_pressure;Samples;Min_cycle;Max_cycle;Signal;HPM_P1;HPM_P2
2023/08/19 00:01:23;;;;;;;56.80;2.50;;;;;;;;;;5051562;28;20440;-68
2023/08/19 00:03:52;;;;;;;57.17;2.57;;;;;;;;;;5051165;28;20476;-68
2023/08/19 00:06:35;;;;;;;57.30;2.60;;;;;;;;;;5051178;28;20445;-68
2023/08/19 00:09:04;;;;;;;56.67;2.37;;;;;;;;;;5051509;28;20444;-68
2023/08/19 00:11:31;;;;;;;56.67;2.40;;;;;;;;;;5051440;28;20444;-68
2023/08/19 00:13:58;;;;;;;57.30;2.57;;;;;;;;;;5051093;28;20518;-68
2023/08/19 00:16:26;;;;;;;56.87;2.20;;;;;;;;;;5051115;28;20970;-68
2023/08/19 00:18:54;;;;;;;56.90;2.43;;;;;;;;;;5051043;28;20484;-68
2023/08/19 00:21:21;;;;;;;56.47;1.97;;;;;;;;;;5051295;28;20440;-69
2023/08/19 00:23:48;;;;;;;56.90;2.47;;;;;;;;;;5051000;28;20466;-68
2023/08/19 00:26:16;;;;;;;56.57;2.33;;;;;;;;;;5051049;28;20448;-68
2023/08/19 00:28:43;;;;;;;57.77;2.43;;;;;;;;;;5051176;28;20823;-68
2023/08/19 00:31:10;;;;;;;57.50;3.73;;;;;;;;;;5051001;28;20450;-68
2023/08/19 00:33:37;;;;;;;56.60;2.20;;;;;;;;;;5050684;28;20460;-68
2023/08/19 00:36:06;;;;;;;56.77;2.20;;;;;;;;;;5051063;28;20448;-68
2023/08/19 00:38:33;;;;;;;57.00;2.47;;;;;;;;;;5050820;28;20496;-68
2023/08/19 00:41:03;;;;;;;57.67;2.77;;;;;;;;;;5050994;28;20448;-68
2023/08/19 00:43:31;;;;;;;56.87;2.33;;;;;;;;;;5050673;28;20471;-68
2023/08/19 00:45:58;;;;;;;57.20;2.40;;;;;;;;;;5053479;28;20451;-68
2023/08/19 00:48:25;;;;;;;57.27;2.20;;;;;;;;;;5055479;28;20817;-68
2023/08/19 00:50:53;;;;;;;57.67;2.90;;;;;;;;;;5055053;28;20440;-68
2023/08/19 00:53:21;;;;;;;57.27;2.93;;;;;;;;;;5054748;28;20477;-68
2023/08/19 00:55:49;;;;;;;56.53;2.30;;;;;;;;;;5054860;28;20875;-68
2023/08/19 00:58:16;;;;;;;56.97;2.50;;;;;;;;;;5054895;28;20480;-68
2023/08/19 01:00:43;;;;;;;56.60;2.00;;;;;;;;;;5054720;28;20445;-68
2023/08/19 01:03:10;;;;;;;57.00;2.43;;;;;;;;;;5054629;28;20444;-68
2023/08/19 01:05:42;;;;;;;56.77;2.40;;;;;;;;;;5054537;28;20454;-68
2023/08/19 01:08:11;;;;;;;56.67;2.40;;;;;;;;;;5054608;28;20462;-68
2023/08/19 01:10:42;;;;;;;57.03;2.60;;;;;;;;;;5054664;28;20443;-69
2023/08/19 01:13:12;;;;;;;57.00;2.60;;;;;;;;;;5054274;28;20530;-69
2023/08/19 01:15:43;;;;;;;57.03;2.83;;;;;;;;;;5054730;28;20450;-69
2023/08/19 01:18:10;;;;;;;56.73;2.47;;;;;;;;;;5054526;28;20856;-69
2023/08/19 01:20:40;;;;;;;56.90;2.53;;;;;;;;;;5054482;28;20467;-69
2023/08/19 01:23:08;;;;;;;57.50;2.50;;;;;;;;;;5054175;28;20535;-69
2023/08/19 01:25:37;;;;;;;56.80;2.37;;;;;;;;;;5054178;28;20523;-69
2023/08/19 01:28:04;;;;;;;57.77;3.07;;;;;;;;;;5054280;28;20455;-69
2023/08/19 01:30:33;;;;;;;57.77;3.07;;;;;;;;;;5054250;28;20444;-69
2023/08/19 01:33:00;;;;;;;57.00;2.23;;;;;;;;;;5053849;28;20476;-68
2023/08/19 01:35:27;;;;;;;57.00;2.70;;;;;;;;;;5054135;28;20448;-69
2023/08/19 01:37:56;;;;;;;58.37;2.93;;;;;;;;;;5053441;28;20498;-69
2023/08/19 01:40:23;;;;;;;56.63;2.30;;;;;;;;;;5052876;28;20451;-69
2023/08/19 01:42:53;;;;;;;56.60;2.10;;;;;;;;;;5052532;28;20575;-69
2023/08/19 01:45:20;;;;;;;57.07;2.37;;;;;;;;;;5051124;28;20506;-69
2023/08/19 01:47:52;;;;;;;57.10;2.70;;;;;;;;;;5052761;28;20706;-68
2023/08/19 01:50:19;;;;;;;56.93;2.30;;;;;;;;;;5052944;28;20433;-69
2023/08/19 01:52:46;;;;;;;56.90;2.40;;;;;;;;;;5052615;28;20457;-69
2023/08/19 01:55:13;;;;;;;56.70;2.23;;;;;;;;;;5052549;28;20467;-69
2023/08/19 01:57:40;;;;;;;56.90;2.57;;;;;;;;;;5052737;28;20826;-69
2023/08/19 02:00:09;;;;;;;57.10;2.20;;;;;;;;;;5052890;28;20448;-69
2023/08/19 02:02:37;;;;;;;56.70;2.20;;;;;;;;;;5052179;28;20444;-69
2023/08/19 02:05:04;;;;;;;56.63;2.10;;;;;;;;;;5052607;28;20836;-69
2023/08/19 02:07:31;;;;;;;56.77;2.30;;;;;;;;;;5052484;28;20449;-69
2023/08/19 02:09:58;;;;;;;56.67;2.30;;;;;;;;;;5052565;28;20538;-69
2023/08/19 02:12:25;;;;;;;57.50;3.00;;;;;;;;;;5052204;28;20448;-69
2023/08/19 02:14:52;;;;;;;56.87;2.30;;;;;;;;;;5052170;28;20468;-69
2023/08/19 02:17:20;;;;;;;56.97;2.50;;;;;;;;;;5052100;28;20944;-69
2023/08/19 02:19:47;;;;;;;57.37;3.00;;;;;;;;;;5052313;28;20483;-69
2023/08/19 02:22:17;;;;;;;57.43;3.47;;;;;;;;;;5051952;28;20444;-69
2023/08/19 02:24:44;;;;;;;56.70;2.27;;;;;;;;;;5052000;28;21008;-69
2023/08/19 02:27:11;;;;;;;57.40;2.50;;;;;;;;;;5052121;28;20444;-68
2023/08/19 02:29:38;;;;;;;57.30;2.87;;;;;;;;;;5051976;28;20436;-69
2023/08/19 02:32:05;;;;;;;56.50;2.37;;;;;;;;;;5052183;28;20742;-69
2023/08/19 02:34:34;;;;;;;56.90;2.50;;;;;;;;;;5052174;28;20464;-69
2023/08/19 02:37:01;;;;;;;58.17;3.47;;;;;;;;;;5013972;28;1093368;-69
2023/08/19 02:39:28;;;;;;;57.17;2.70;;;;;;;;;;5053091;28;20233;-68
2023/08/19 02:41:55;;;;;;;57.50;3.23;;;;;;;;;;5052852;28;20440;-69
2023/08/19 02:44:22;;;;;;;66.20;2.77;;;;;;;;;;5052768;28;20476;-68
2023/08/19 02:46:49;;;;;;;58.03;2.50;;;;;;;;;;5052957;28;20444;-69
2023/08/19 02:49:16;;;;;;;57.50;2.70;;;;;;;;;;5052779;28;20444;-68
2023/08/19 02:51:45;;;;;;;57.20;2.40;;;;;;;;;;5052948;28;20454;-69
2023/08/19 02:54:13;;;;;;;56.77;2.40;;;;;;;;;;5052684;28;20487;-68
2023/08/19 02:56:40;;;;;;;57.70;3.17;;;;;;;;;;5052476;28;20440;-69
2023/08/19 02:59:08;;;;;;;56.63;2.27;;;;;;;;;;5052489;28;20486;-68
2023/08/19 03:01:35;;;;;;;57.10;2.50;;;;;;;;;;5052576;28;20453;-68
2023/08/19 03:04:02;;;;;;;56.97;2.53;;;;;;;;;;5052464;28;20848;-68
2023/08/19 03:06:30;;;;;;;57.27;2.73;;;;;;;;;;5052512;28;20455;-68
2023/08/19 03:08:58;;;;;;;56.77;2.60;;;;;;;;;;5051561;28;20444;-68
2023/08/19 03:11:25;;;;;;;56.77;2.97;;;;;;;;;;5052213;28;20448;-68
2023/08/19 03:13:52;;;;;;;56.47;2.20;;;;;;;;;;5052270;28;20712;-68
2023/08/19 03:16:19;;;;;;;56.53;2.30;;;;;;;;;;5052284;28;20456;-69
2023/08/19 03:18:46;;;;;;;56.97;3.17;;;;;;;;;;5052081;28;20476;-68
2023/08/19 03:21:14;;;;;;;56.90;2.60;;;;;;;;;;5052100;28;20959;-69
2023/08/19 03:23:41;;;;;;;57.67;3.93;;;;;;;;;;5051772;28;20468;-68
2023/08/19 03:26:09;;;;;;;56.80;2.47;;;;;;;;;;5052011;28;20452;-68
2023/08/19 03:28:36;;;;;;;56.80;2.50;;;;;;;;;;5052262;28;20821;-69
2023/08/19 03:31:08;;;;;;;57.00;2.80;;;;;;;;;;5052044;28;20441;-69
2023/08/19 03:33:36;;;;;;;56.90;2.60;;;;;;;;;;5051647;28;20804;-69
2023/08/19 03:36:03;;;;;;;56.77;2.40;;;;;;;;;;5051780;28;20452;-69
2023/08/19 03:38:30;;;;;;;57.70;3.07;;;;;;;;;;5051590;28;20535;-69
2023/08/19 03:40:57;;;;;;;57.73;3.37;;;;;;;;;;5051997;28;20444;-69
2023/08/19 03:43:25;;;;;;;58.60;2.70;;;;;;;;;;5051662;28;20472;-68
2023/08/19 03:45:53;;;;;;;57.00;3.10;;;;;;;;;;5052061;28;20444;-69
2023/08/19 03:48:20;;;;;;;57.20;2.60;;;;;;;;;;5051783;28;20448;-69
2023/08/19 03:50:47;;;;;;;56.70;2.60;;;;;;;;;;5051631;28;20448;-69
2023/08/19 03:53:14;;;;;;;56.80;2.60;;;;;;;;;;5051167;28;20971;-68
2023/08/19 03:55:41;;;;;;;56.77;2.53;;;;;;;;;;5051616;28;20447;-68
2023/08/19 03:58:08;;;;;;;56.80;2.13;;;;;;;;;;5051512;28;20448;-69
2023/08/19 04:00:37;;;;;;;58.50;2.77;;;;;;;;;;5051447;28;20483;-68
2023/08/19 04:03:05;;;;;;;57.10;2.97;;;;;;;;;;5051094;28;20462;-69
2023/08/19 04:05:32;;;;;;;57.00;2.70;;;;;;;;;;5051222;28;20436;-68
2023/08/19 04:07:59;;;;;;;56.97;2.50;;;;;;;;;;5051576;28;20440;-68
2023/08/19 04:10:26;;;;;;;56.60;2.47;;;;;;;;;;5051258;28;20444;-68
2023/08/19 04:12:53;;;;;;;57.57;3.73;;;;;;;;;;5051196;28;20815;-68
2023/08/19 04:15:20;;;;;;;56.77;2.23;;;;;;;;;;5051106;28;20478;-68
2023/08/19 04:17:49;;;;;;;56.90;2.67;;;;;;;;;;5051239;28;20445;-68
2023/08/19 04:20:17;;;;;;;56.57;2.30;;;;;;;;;;5051180;28;20488;-68
2023/08/19 04:22:44;;;;;;;57.10;2.70;;;;;;;;;;5050923;28;20451;-68
2023/08/19 04:25:11;;;;;;;56.70;2.60;;;;;;;;;;5051192;28;20472;-68
2023/08/19 04:27:38;;;;;;;57.30;2.80;;;;;;;;;;5051114;28;20828;-68
2023/08/19 04:30:06;;;;;;;58.03;2.27;;;;;;;;;;5051526;28;20455;-68
2023/08/19 04:32:33;;;;;;;56.80;2.67;;;;;;;;;;5050732;28;20454;-68
2023/08/19 04:35:03;;;;;;;56.90;2.30;;;;;;;;;;5051178;28;20475;-68
2023/08/19 04:37:30;;;;;;;57.00;2.60;;;;;;;;;;5050961;28;20448;-68
2023/08/19 04:39:57;;;;;;;56.97;2.73;;;;;;;;;;5051041;28;20527;-68
2023/08/19 04:42:24;;;;;;;57.10;2.70;;;;;;;;;;5050783;28;20452;-68
2023/08/19 04:44:51;;;;;;;56.80;2.73;;;;;;;;;;5050801;28;20464;-68
2023/08/19 04:47:18;;;;;;;56.80;2.30;;;;;;;;;;5051057;28;20448;-68
2023/08/19 04:49:46;;;;;;;56.57;2.47;;;;;;;;;;5051291;28;20441;-68
2023/08/19 04:52:15;;;;;;;56.67;2.07;;;;;;;;;;5050771;28;20847;-68
2023/08/19 04:54:42;;;;;;;56.80;2.40;;;;;;;;;;5050767;28;20476;-68
2023/08/19 04:57:09;;;;;;;56.97;2.37;;;;;;;;;;5050791;28;20444;-68
2023/08/19 04:59:36;;;;;;;56.90;2.57;;;;;;;;;;5050571;28;20486;-68
2023/08/19 05:02:03;;;;;;;56.47;2.37;;;;;;;;;;5050638;28;20924;-68
2023/08/19 05:04:31;;;;;;;56.57;2.20;;;;;;;;;;5050893;28;20930;-68
2023/08/19 05:06:58;;;;;;;57.03;2.73;;;;;;;;;;5050599;28;20944;-68
2023/08/19 05:09:26;;;;;;;56.80;2.30;;;;;;;;;;5050850;28;20436;-69
2023/08/19 05:11:53;;;;;;;56.77;2.17;;;;;;;;;;5050511;28;20815;-68
2023/08/19 05:14:20;;;;;;;56.57;2.27;;;;;;;;;;5050537;28;20470;-68
2023/08/19 05:16:47;;;;;;;56.67;2.40;;;;;;;;;;5050653;28;20660;-68
2023/08/19 05:19:18;;;;;;;56.90;2.77;;;;;;;;;;5050798;28;20574;-68
2023/08/19 05:21:46;;;;;;;56.90;2.30;;;;;;;;;;5050544;28;20448;-69
2023/08/19 05:24:14;;;;;;;56.60;2.30;;;;;;;;;;5050465;28;20572;-69
2023/08/19 05:26:44;;;;;;;56.80;2.50;;;;;;;;;;5050361;28;20531;-69
2023/08/19 05:29:11;;;;;;;56.90;2.30;;;;;;;;;;5050769;28;20452;-69
2023/08/19 05:31:39;;;;;;;56.67;2.70;;;;;;;;;;5052414;28;20460;-69
2023/08/19 05:34:07;;;;;;;56.57;2.27;;;;;;;;;;5054094;28;20464;-69
2023/08/19 05:36:35;;;;;;;57.00;2.23;;;;;;;;;;5053969;28;20956;-69
2023/08/19 05:39:02;;;;;;;56.70;2.20;;;;;;;;;;5053991;28;20452;-69
2023/08/19 05:41:29;;;;;;;56.60;2.20;;;;;;;;;;5053992;28;20867;-70
2023/08/19 05:43:57;;;;;;;56.60;2.23;;;;;;;;;;5053858;28;20474;-70
2023/08/19 05:46:24;;;;;;;57.00;2.30;;;;;;;;;;5054053;28;20440;-69
2023/08/19 05:48:52;;;;;;;57.90;3.10;;;;;;;;;;5053952;28;20952;-69
2023/08/19 05:51:19;;;;;;;56.90;2.67;;;;;;;;;;5053943;28;20448;-69
2023/08/19 05:53:46;;;;;;;56.70;2.63;;;;;;;;;;5053436;28;20483;-69
2023/08/19 05:56:13;;;;;;;57.00;2.30;;;;;;;;;;5053966;28;20444;-70
2023/08/19 05:58:40;;;;;;;57.20;2.93;;;;;;;;;;5053918;28;20816;-69
2023/08/19 06:01:09;;;;;;;56.40;2.10;;;;;;;;;;5053804;28;20585;-70
2023/08/19 06:03:36;;;;;;;56.57;2.30;;;;;;;;;;5053483;28;20460;-70
2023/08/19 06:06:06;;;;;;;57.00;2.50;;;;;;;;;;5053546;28;20940;-69
2023/08/19 06:08:33;;;;;;;56.27;2.20;;;;;;;;;;5053496;28;20440;-69
2023/08/19 06:11:02;;;;;;;56.27;2.10;;;;;;;;;;5053772;28;20445;-70
2023/08/19 06:13:29;;;;;;;57.20;2.77;;;;;;;;;;5053270;28;20494;-70
2023/08/19 06:15:56;;;;;;;56.60;2.40;;;;;;;;;;5053452;28;20444;-70
2023/08/19 06:18:25;;;;;;;56.70;2.40;;;;;;;;;;5053443;28;20531;-70
2023/08/19 06:20:52;;;;;;;57.37;2.47;;;;;;;;;;5053170;28;20476;-69
2023/08/19 06:23:20;;;;;;;58.70;2.43;;;;;;;;;;5053219;28;20464;-70
2023/08/19 06:25:47;;;;;;;66.10;3.53;;;;;;;;;;5053098;28;20449;-69
2023/08/19 06:28:14;;;;;;;56.73;2.80;;;;;;;;;;5053117;28;20444;-69
2023/08/19 06:30:42;;;;;;;56.60;2.47;;;;;;;;;;5053239;28;20832;-70
2023/08/19 06:33:10;;;;;;;56.30;2.00;;;;;;;;;;5052951;28;20537;-70
2023/08/19 06:35:39;;;;;;;56.50;2.50;;;;;;;;;;5053229;28;20859;-70
2023/08/19 06:38:08;;;;;;;56.60;2.70;;;;;;;;;;5052844;28;20978;-70
2023/08/19 06:40:35;;;;;;;56.90;2.43;;;;;;;;;;5053003;28;20494;-68
2023/08/19 06:43:03;;;;;;;56.17;2.30;;;;;;;;;;5051584;28;20438;-68
2023/08/19 06:45:31;;;;;;;56.40;2.23;;;;;;;;;;5052836;28;20456;-68
2023/08/19 06:47:59;;;;;;;56.33;2.13;;;;;;;;;;5052767;28;20824;-68
2023/08/19 06:50:27;;;;;;;56.90;2.60;;;;;;;;;;5052784;28;20941;-68
2023/08/19 06:52:56;;;;;;;56.07;2.10;;;;;;;;;;5052731;28;20470;-68
2023/08/19 06:55:23;;;;;;;56.67;2.57;;;;;;;;;;5052625;28;20455;-67
2023/08/19 06:57:55;;;;;;;56.20;2.20;;;;;;;;;;5052715;28;20844;-67
2023/08/19 07:00:23;;;;;;;56.50;2.00;;;;;;;;;;5052531;28;20851;-68
2023/08/19 07:02:53;;;;;;;56.40;1.90;;;;;;;;;;5052590;28;20445;-67
2023/08/19 07:05:21;;;;;;;57.37;2.43;;;;;;;;;;5052591;28;20478;-68
2023/08/19 07:07:50;;;;;;;56.50;2.27;;;;;;;;;;5052579;28;20855;-68
2023/08/19 07:10:20;;;;;;;56.40;2.13;;;;;;;;;;5052435;28;20433;-68
2023/08/19 07:12:47;;;;;;;56.57;2.20;;;;;;;;;;5052007;28;20450;-68
2023/08/19 07:15:15;;;;;;;57.20;2.40;;;;;;;;;;5052396;28;20465;-68
2023/08/19 07:17:44;;;;;;;57.20;2.50;;;;;;;;;;5052217;28;20941;-68
2023/08/19 07:20:15;;;;;;;56.80;2.70;;;;;;;;;;5052272;28;20494;-68
2023/08/19 07:22:43;;;;;;;57.00;2.57;;;;;;;;;;5051802;28;20448;-68
2023/08/19 07:25:11;;;;;;;57.63;3.80;;;;;;;;;;5052025;28;20551;-68
2023/08/19 07:27:39;;;;;;;57.17;2.50;;;;;;;;;;5051893;28;20445;-68
2023/08/19 07:30:07;;;;;;;56.17;2.17;;;;;;;;;;5052199;28;20441;-68
2023/08/19 07:32:35;;;;;;;56.90;2.90;;;;;;;;;;5051660;28;20440;-68
2023/08/19 07:35:02;;;;;;;58.20;3.70;;;;;;;;;;5051985;28;20476;-68
2023/08/19 07:37:29;;;;;;;56.33;1.87;;;;;;;;;;5051865;28;20549;-68
2023/08/19 07:39:57;;;;;;;55.97;1.93;;;;;;;;;;5051680;28;21097;-68
2023/08/19 07:42:25;;;;;;;58.03;2.50;;;;;;;;;;5051684;28;20440;-68
2023/08/19 07:44:53;;;;;;;56.10;2.30;;;;;;;;;;5051764;28;20479;-68
2023/08/19 07:47:20;;;;;;;59.03;3.47;;;;;;;;;;5051785;28;20451;-68
2023/08/19 07:49:47;;;;;;;56.30;2.10;;;;;;;;;;5051620;28;20444;-68
2023/08/19 07:52:15;;;;;;;56.70;2.30;;;;;;;;;;5051374;28;20440;-68
2023/08/19 07:54:42;;;;;;;58.30;2.73;;;;;;;;;;5051033;28;20468;-68
2023/08/19 07:57:09;;;;;;;56.77;2.10;;;;;;;;;;5051403;28;20446;-68
2023/08/19 07:59:37;;;;;;;56.90;2.87;;;;;;;;;;5051556;28;20449;-68
2023/08/19 08:02:05;;;;;;;55.40;1.80;;;;;;;;;;5051120;28;21002;-68
2023/08/19 08:04:32;;;;;;;56.60;2.03;;;;;;;;;;5051432;28;20468;-68
2023/08/19 08:07:00;;;;;;;56.27;2.00;;;;;;;;;;5051227;28;20440;-68
2023/08/19 08:09:27;;;;;;;56.17;2.00;;;;;;;;;;5051663;28;20456;-68
2023/08/19 08:11:54;;;;;;;55.97;1.90;;;;;;;;;;5051284;28;20440;-68
2023/08/19 08:14:21;;;;;;;56.60;2.30;;;;;;;;;;5051201;28;20471;-68
2023/08/19 08:16:48;;;;;;;56.20;2.00;;;;;;;;;;5051237;28;20811;-68
2023/08/19 08:19:16;;;;;;;56.87;2.43;;;;;;;;;;5051245;28;20881;-68
2023/08/19 08:21:43;;;;;;;56.07;1.90;;;;;;;;;;5050726;28;20494;-68
2023/08/19 08:24:11;;;;;;;56.80;2.20;;;;;;;;;;5050997;28;20976;-68
2023/08/19 08:26:38;;;;;;;56.30;1.90;;;;;;;;;;5051159;28;20454;-68
2023/08/19 08:29:05;;;;;;;55.77;1.80;;;;;;;;;;5051021;28;20448;-68
2023/08/19 08:31:32;;;;;;;56.00;2.20;;;;;;;;;;5051049;28;20440;-68
2023/08/19 08:33:59;;;;;;;56.40;2.10;;;;;;;;;;5050782;28;20980;-68
2023/08/19 08:36:28;;;;;;;56.60;2.50;;;;;;;;;;5050795;28;20444;-68
2023/08/19 08:38:55;;;;;;;56.20;1.80;;;;;;;;;;5051158;28;20979;-68
2023/08/19 08:41:22;;;;;;;56.33;1.90;;;;;;;;;;5051047;28;20530;-69
2023/08/19 08:43:49;;;;;;;56.17;2.30;;;;;;;;;;5050760;28;20465;-69
2023/08/19 08:46:16;;;;;;;56.47;2.60;;;;;;;;;;5050949;28;20836;-69
2023/08/19 08:48:45;;;;;;;55.83;1.90;;;;;;;;;;5050813;28;20443;-69
2023/08/19 08:51:12;;;;;;;56.10;1.70;;;;;;;;;;5051069;28;20440;-69
2023/08/19 08:53:41;;;;;;;55.93;1.97;;;;;;;;;;5050680;28;20460;-69
2023/08/19 08:56:09;;;;;;;55.83;1.80;;;;;;;;;;5050780;28;20966;-69
2023/08/19 08:58:36;;;;;;;56.30;2.10;;;;;;;;;;5050951;28;20440;-69
2023/08/19 09:01:03;;;;;;;56.20;1.90;;;;;;;;;;5050722;28;20490;-69
2023/08/19 09:03:32;;;;;;;56.30;2.27;;;;;;;;;;5050341;28;20464;-69
2023/08/19 09:06:00;;;;;;;56.50;2.60;;;;;;;;;;5051918;28;20502;-69
2023/08/19 09:08:30;;;;;;;56.50;2.10;;;;;;;;;;5054781;28;20447;-69
2023/08/19 09:11:00;;;;;;;55.77;1.70;;;;;;;;;;5054881;28;20447;-69
2023/08/19 09:13:27;;;;;;;57.50;2.97;;;;;;;;;;5054309;28;21041;-69
2023/08/19 09:15:54;;;;;;;57.47;2.67;;;;;;;;;;5054377;28;20448;-69
2023/08/19 09:18:22;;;;;;;58.57;3.60;;;;;;;;;;5054555;28;20843;-69
2023/08/19 09:20:49;;;;;;;56.33;2.43;;;;;;;;;;5054410;28;20490;-69
2023/08/19 09:23:16;;;;;;;57.13;2.33;;;;;;;;;;5054562;28;20813;-69
2023/08/19 09:25:44;;;;;;;56.27;1.97;;;;;;;;;;5054539;28;20448;-69
2023/08/19 09:28:17;;;;;;;56.60;2.57;;;;;;;;;;5054242;28;20543;-70
2023/08/19 09:30:44;;;;;;;56.17;1.97;;;;;;;;;;5054347;28;20502;-69
2023/08/19 09:33:18;;;;;;;56.30;2.17;;;;;;;;;;5054186;28;20440;-69
2023/08/19 09:35:45;;;;;;;56.00;2.20;;;;;;;;;;5054285;28;20455;-70
2023/08/19 09:38:20;;;;;;;55.87;1.63;;;;;;;;;;5054030;28;20452;-69
2023/08/19 09:40:58;;;;;;;56.07;1.97;;;;;;;;;;5053985;28;21006;-69
2023/08/19 09:43:27;;;;;;;58.70;3.17;;;;;;;;;;5053882;28;20967;-70
2023/08/19 09:45:57;;;;;;;56.10;1.97;;;;;;;;;;5054047;28;20440;-70
2023/08/19 09:48:24;;;;;;;56.27;2.20;;;;;;;;;;5054218;28;20498;-69
2023/08/19 09:50:51;;;;;;;56.23;2.23;;;;;;;;;;5054049;28;20940;-69
2023/08/19 09:53:19;;;;;;;56.10;2.00;;;;;;;;;;5053479;28;20470;-69
2023/08/19 09:55:46;;;;;;;57.17;2.73;;;;;;;;;;5053957;28;20887;-69
2023/08/19 09:58:13;;;;;;;56.37;2.40;;;;;;;;;;5054017;28;20448;-69
2023/08/19 10:00:42;;;;;;;56.50;2.20;;;;;;;;;;5053980;28;20881;-69
2023/08/19 10:03:09;;;;;;;56.47;2.40;;;;;;;;;;5053362;28;20964;-69
2023/08/19 10:05:39;;;;;;;56.20;2.07;;;;;;;;;;5053896;28;20441;-69
2023/08/19 10:08:08;;;;;;;56.00;1.90;;;;;;;;;;5053791;28;20954;-69
2023/08/19 10:10:38;;;;;;;56.47;2.10;;;;;;;;;;5053868;28;20455;-70
2023/08/19 10:13:06;;;;;;;55.97;2.00;;;;;;;;;;5053386;28;20928;-70
2023/08/19 10:15:34;;;;;;;56.43;2.20;;;;;;;;;;5053565;28;20445;-70
2023/08/19 10:18:05;;;;;;;55.70;2.10;;;;;;;;;;5053205;28;20440;-70
2023/08/19 10:20:33;;;;;;;55.70;2.30;;;;;;;;;;5053373;28;20505;-70
2023/08/19 10:23:03;;;;;;;54.93;1.97;;;;;;;;;;5053212;28;20456;-70
2023/08/19 10:25:30;;;;;;;55.83;2.53;;;;;;;;;;5053405;28;20475;-71
2023/08/19 10:28:06;;;;;;;55.70;2.50;;;;;;;;;;5053431;28;20494;-70
2023/08/19 10:30:33;;;;;;;55.00;2.10;;;;;;;;;;5053356;28;20848;-70
2023/08/19 10:33:06;;;;;;;57.30;2.60;;;;;;;;;;5052818;28;20937;-70
2023/08/19 10:35:51;;;;;;;55.00;2.17;;;;;;;;;;5053218;28;20448;-71
2023/08/19 10:38:18;;;;;;;56.17;2.37;;;;;;;;;;5052698;28;20451;-70
2023/08/19 10:41:02;;;;;;;54.70;2.17;;;;;;;;;;5053146;28;20585;-70
2023/08/19 10:43:29;;;;;;;55.30;2.47;;;;;;;;;;5052606;28;20457;-70
2023/08/19 10:45:57;;;;;;;54.80;2.13;;;;;;;;;;5053069;28;20444;-71
2023/08/19 10:48:34;;;;;;;54.03;1.90;;;;;;;;;;5052899;28;20449;-70
2023/08/19 10:51:01;;;;;;;54.00;2.60;;;;;;;;;;5052853;28;20448;-70
2023/08/19 10:53:28;;;;;;;53.77;2.10;;;;;;;;;;5052916;28;20814;-70
2023/08/19 10:55:55;;;;;;;53.83;1.83;;;;;;;;;;5052529;28;20452;-70
2023/08/19 10:58:23;;;;;;;56.20;2.10;;;;;;;;;;5052848;28;20440;-70
2023/08/19 11:00:50;;;;;;;54.30;2.20;;;;;;;;;;5052673;28;20441;-70
2023/08/19 11:03:17;;;;;;;54.47;2.13;;;;;;;;;;5052420;28;20448;-70
2023/08/19 11:05:50;;;;;;;54.50;2.40;;;;;;;;;;5052656;28;20653;-70
2023/08/19 11:08:17;;;;;;;55.53;3.37;;;;;;;;;;5052085;28;20444;-69
2023/08/19 11:10:46;;;;;;;53.97;2.53;;;;;;;;;;5052482;28;20446;-70
2023/08/19 11:13:13;;;;;;;53.93;1.90;;;;;;;;;;5052082;28;20452;-69
2023/08/19 11:15:40;;;;;;;53.87;1.80;;;;;;;;;;5052104;28;20514;-71
2023/08/19 11:18:07;;;;;;;54.17;1.93;;;;;;;;;;5052053;28;20454;-69
2023/08/19 11:20:34;;;;;;;54.10;2.30;;;;;;;;;;5051982;28;20448;-69
2023/08/19 11:23:03;;;;;;;53.43;2.00;;;;;;;;;;5051361;28;20551;-69
2023/08/19 11:25:37;;;;;;;54.20;2.50;;;;;;;;;;5051999;28;20467;-71
2023/08/19 11:28:04;;;;;;;54.33;2.40;;;;;;;;;;5051320;28;20419;-71
2023/08/19 11:30:31;;;;;;;54.00;2.30;;;;;;;;;;5051784;28;20456;-71
2023/08/19 11:32:58;;;;;;;53.20;2.50;;;;;;;;;;5051458;28;20862;-71
2023/08/19 11:35:29;;;;;;;53.47;2.40;;;;;;;;;;5051715;28;20447;-71
2023/08/19 11:37:56;;;;;;;54.13;2.53;;;;;;;;;;5051790;28;20460;-71
2023/08/19 11:40:33;;;;;;;53.80;2.37;;;;;;;;;;5051582;28;20447;-70
2023/08/19 11:43:06;;;;;;;54.23;2.77;;;;;;;;;;5051297;28;20451;-70
2023/08/19 11:45:37;;;;;;;54.20;2.20;;;;;;;;;;5051456;28;20436;-69
2023/08/19 11:48:05;;;;;;;54.60;2.43;;;;;;;;;;5051586;28;20440;-69
2023/08/19 11:50:34;;;;;;;54.67;2.57;;;;;;;;;;5051422;28;20458;-70
2023/08/19 11:53:02;;;;;;;53.97;2.10;;;;;;;;;;5051107;28;20925;-70
2023/08/19 11:55:31;;;;;;;54.60;2.20;;;;;;;;;;5051499;28;20444;-70
2023/08/19 11:57:58;;;;;;;55.27;3.27;;;;;;;;;;5051361;28;20444;-70
2023/08/19 12:00:27;;;;;;;54.40;2.17;;;;;;;;;;5051119;28;20446;-70
2023/08/19 12:02:54;;;;;;;54.07;1.90;;;;;;;;;;5051088;28;20447;-70
2023/08/19 12:05:24;;;;;;;54.60;2.23;;;;;;;;;;5051103;28;20473;-70
2023/08/19 12:07:51;;;;;;;54.77;2.30;;;;;;;;;;5051325;28;20449;-70
2023/08/19 12:10:18;;;;;;;54.87;2.47;;;;;;;;;;5051164;28;20448;-69
2023/08/19 12:12:59;;;;;;;53.57;2.00;;;;;;;;;;5051050;28;20477;-71
2023/08/19 12:15:26;;;;;;;54.00;2.03;;;;;;;;;;5050889;28;20444;-71
2023/08/19 12:17:53;;;;;;;54.20;2.10;;;;;;;;;;5050923;28;20456;-69
2023/08/19 12:20:20;;;;;;;54.00;2.30;;;;;;;;;;5051086;28;20459;-70
2023/08/19 12:22:48;;;;;;;54.50;2.60;;;;;;;;;;5050800;28;20450;-69
2023/08/19 12:25:15;;;;;;;53.90;2.10;;;;;;;;;;5050947;28;20554;-70
2023/08/19 12:27:43;;;;;;;53.63;2.20;;;;;;;;;;5051136;28;20448;-70
2023/08/19 12:30:12;;;;;;;53.77;2.33;;;;;;;;;;5051209;28;20456;-69
2023/08/19 12:32:39;;;;;;;53.33;2.20;;;;;;;;;;5050732;28;20502;-70
2023/08/19 12:35:07;;;;;;;53.97;2.30;;;;;;;;;;5050993;28;20458;-69
2023/08/19 12:37:34;;;;;;;53.80;2.60;;;;;;;;;;5051143;28;20477;-70
2023/08/19 12:40:03;;;;;;;53.57;2.43;;;;;;;;;;5051756;28;20450;-70
2023/08/19 12:42:30;;;;;;;53.87;2.50;;;;;;;;;;5055017;28;20537;-71
2023/08/19 12:44:57;;;;;;;53.80;2.40;;;;;;;;;;5054943;28;20465;-71
2023/08/19 12:47:26;;;;;;;54.30;2.70;;;;;;;;;;5054879;28;20450;-68
2023/08/19 12:49:53;;;;;;;54.40;2.93;;;;;;;;;;5054997;28;20444;-70
2023/08/19 12:52:20;;;;;;;54.77;2.83;;;;;;;;;;5054511;28;20461;-69
2023/08/19 12:54:47;;;;;;;54.07;2.80;;;;;;;;;;5054804;28;20475;-70
2023/08/19 12:57:14;;;;;;;55.43;2.90;;;;;;;;;;5055217;28;20473;-70
2023/08/19 12:59:41;;;;;;;54.20;2.57;;;;;;;;;;5055009;28;20449;-70
2023/08/19 13:02:08;;;;;;;54.53;2.30;;;;;;;;;;5054905;28;20440;-70
2023/08/19 13:04:37;;;;;;;54.30;2.50;;;;;;;;;;5054380;28;20469;-69
2023/08/19 13:07:04;;;;;;;54.20;2.40;;;;;;;;;;5054393;28;20447;-70
2023/08/19 13:09:31;;;;;;;53.90;2.43;;;;;;;;;;5054926;28;20446;-70
2023/08/19 13:11:58;;;;;;;53.50;2.17;;;;;;;;;;5054424;28;20480;-70
2023/08/19 13:14:25;;;;;;;55.47;2.80;;;;;;;;;;5054468;28;20468;-70
2023/08/19 13:16:52;;;;;;;54.47;2.27;;;;;;;;;;5054273;28;20444;-69
2023/08/19 13:19:19;;;;;;;54.47;2.07;;;;;;;;;;5054325;28;21007;-70
2023/08/19 13:21:48;;;;;;;55.90;2.43;;;;;;;;;;5054102;28;20440;-71
2023/08/19 13:24:15;;;;;;;56.40;2.40;;;;;;;;;;5054393;28;20992;-70
2023/08/19 13:26:42;;;;;;;54.73;2.00;;;;;;;;;;5054166;28;20947;-70
2023/08/19 13:29:09;;;;;;;55.37;2.20;;;;;;;;;;5054285;28;20517;-69
2023/08/19 13:31:37;;;;;;;54.87;1.90;;;;;;;;;;5053907;28;20498;-70
2023/08/19 13:34:04;;;;;;;55.07;2.27;;;;;;;;;;5053769;28;20534;-70
2023/08/19 13:36:31;;;;;;;55.90;2.30;;;;;;;;;;5054086;28;20828;-69
2023/08/19 13:39:00;;;;;;;55.57;2.40;;;;;;;;;;5054119;28;20533;-69
2023/08/19 13:41:27;;;;;;;55.47;2.23;;;;;;;;;;5053990;28;20813;-69
2023/08/19 13:43:54;;;;;;;56.97;2.70;;;;;;;;;;5054021;28;20468;-70
2023/08/19 13:46:21;;;;;;;56.33;2.63;;;;;;;;;;5054386;28;20913;-70
2023/08/19 13:48:48;;;;;;;55.63;2.33;;;;;;;;;;5053963;28;20448;-70
2023/08/19 13:51:18;;;;;;;55.57;1.90;;;;;;;;;;5053394;28;20458;-70
2023/08/19 13:53:45;;;;;;;55.63;2.43;;;;;;;;;;5053427;28;21011;-70
2023/08/19 13:56:13;;;;;;;56.27;2.03;;;;;;;;;;5053745;28;20955;-70
2023/08/19 13:58:40;;;;;;;56.37;2.50;;;;;;;;;;5053798;28;20451;-70
2023/08/19 14:01:09;;;;;;;56.40;2.53;;;;;;;;;;5053778;28;20451;-70
2023/08/19 14:03:36;;;;;;;56.33;2.33;;;;;;;;;;5053227;28;20577;-68
2023/08/19 14:06:04;;;;;;;56.10;2.00;;;;;;;;;;5053671;28;20936;-69
2023/08/19 14:08:35;;;;;;;56.63;1.80;;;;;;;;;;5053701;28;20498;-69
2023/08/19 14:11:03;;;;;;;57.77;2.43;;;;;;;;;;5053777;28;20556;-70
2023/08/19 14:13:31;;;;;;;56.20;2.27;;;;;;;;;;5053015;28;20492;-70
2023/08/19 14:15:59;;;;;;;56.07;2.17;;;;;;;;;;5053430;28;20447;-70
2023/08/19 14:18:26;;;;;;;57.27;2.43;;;;;;;;;;5053951;28;20441;-70
2023/08/19 14:20:53;;;;;;;56.10;2.40;;;;;;;;;;5053496;28;20441;-70
2023/08/19 14:23:20;;;;;;;56.87;2.77;;;;;;;;;;5053119;28;20460;-70
2023/08/19 14:25:47;;;;;;;56.47;2.13;;;;;;;;;;5053358;28;21023;-69
2023/08/19 14:28:14;;;;;;;56.10;2.00;;;;;;;;;;5053144;28;20455;-70
2023/08/19 14:30:43;;;;;;;56.27;2.10;;;;;;;;;;5053126;28;20757;-70
2023/08/19 14:33:10;;;;;;;57.67;3.00;;;;;;;;;;5052887;28;20516;-70
2023/08/19 14:35:38;;;;;;;56.70;2.60;;;;;;;;;;5053107;28;20523;-70